Time;durP1;ratioP1;P1;durP2;ratioP2;P2;SDS_P1;SDS_P2;PMS_P1;PMS_P2;Temp;Humidity;BMP_temperature;BMP_pressure;BME280_temperature;BME280_humidity;BME280_pressure;Samples;Min_cycle;Max_cycle;Signal;HPM_P1;HPM_P2
2022/04/01 00:01:49;;;;;;;13.52;4.38;;;;;;;5.28;48.16;99140.03;4915718;29;20052;-72
2022/04/01 00:04:15;;;;;;;9.77;4.25;;;;;;;5.26;47.96;99126.09;4915757;29;20041;-73
2022/04/01 00:06:40;;;;;;;8.73;5.75;;;;;;;5.26;48.21;99129.56;4898834;29;20033;-72
2022/04/01 00:09:05;;;;;;;9.13;3.88;;;;;;;5.28;47.75;99130.44;4915829;29;20083;-73
2022/04/01 00:11:31;;;;;;;9.13;3.70;;;;;;;5.33;48.45;99130.41;4915475;29;20040;-72
2022/04/01 00:13:56;;;;;;;9.95;3.58;;;;;;;5.31;48.04;99129.53;4915588;29;20091;-73
2022/04/01 00:16:22;;;;;;;7.43;3.83;;;;;;;5.35;48.46;99135.66;4915678;29;20051;-73
2022/04/01 00:18:47;;;;;;;11.23;4.90;;;;;;;5.28;47.95;99126.97;4915062;29;20032;-72
2022/04/01 00:21:12;;;;;;;12.10;3.90;;;;;;;5.24;47.92;99122.66;4915335;29;20491;-72
2022/04/01 00:23:38;;;;;;;8.02;3.90;;;;;;;5.25;47.77;99120.00;4915499;29;20043;-72
2022/04/01 00:26:03;;;;;;;9.65;3.95;;;;;;;5.20;47.18;99119.16;4915455;29;20043;-72
2022/04/01 00:28:28;;;;;;;7.60;3.95;;;;;;;5.20;47.53;99111.31;4915368;29;20044;-73
2022/04/01 00:30:54;;;;;;;8.55;3.70;;;;;;;5.17;47.47;99107.88;4915212;29;20036;-72
2022/04/01 00:33:20;;;;;;;11.18;4.90;;;;;;;5.08;47.08;99110.53;4915364;29;20052;-73
2022/04/01 00:35:45;;;;;;;11.23;4.22;;;;;;;5.01;47.46;99107.09;4915384;29;20043;-73
2022/04/01 00:38:11;;;;;;;9.85;3.58;;;;;;;5.04;48.10;99107.06;4915317;29;20479;-71
2022/04/01 00:40:37;;;;;;;11.50;4.00;;;;;;;4.98;47.26;99101.91;4906758;29;20427;-72
2022/04/01 00:43:02;;;;;;;9.45;3.95;;;;;;;4.98;47.36;99114.97;4914964;29;20080;-72
2022/04/01 00:45:27;;;;;;;9.63;3.90;;;;;;;4.94;47.42;99113.25;4915136;29;20123;-72
2022/04/01 00:47:55;;;;;;;11.02;3.67;;;;;;;4.94;46.29;99115.84;4914993;29;20032;-72
2022/04/01 00:50:22;;;;;;;10.77;3.50;;;;;;;4.95;46.28;99110.63;4897407;29;20328;-72
2022/04/01 00:52:48;;;;;;;11.02;3.63;;;;;;;4.93;46.22;99101.91;4914848;29;20605;-72
2022/04/01 00:55:14;;;;;;;13.23;3.72;;;;;;;4.86;45.29;99101.97;4897466;29;20032;-72
2022/04/01 00:57:40;;;;;;;8.18;3.63;;;;;;;4.83;45.30;99110.69;4914701;29;20028;-72
2022/04/01 01:00:07;;;;;;;9.65;3.90;;;;;;;4.75;44.87;99102.88;4915122;29;20392;-73
2022/04/01 01:02:34;;;;;;;8.60;3.70;;;;;;;4.65;44.42;99102.94;4914549;29;20036;-72
2022/04/01 01:05:00;;;;;;;10.60;3.42;;;;;;;4.69;43.96;99109.88;4898098;29;20403;-72
2022/04/01 01:07:26;;;;;;;9.38;4.15;;;;;;;4.55;43.54;99102.13;4914188;29;20040;-72
2022/04/01 01:09:52;;;;;;;8.93;3.90;;;;;;;4.52;42.85;99104.75;4914475;29;20052;-72
2022/04/01 01:12:19;;;;;;;10.45;4.75;;;;;;;4.52;42.78;99110.84;4897534;29;20582;-72
2022/04/01 01:14:44;;;;;;;13.38;4.75;;;;;;;4.39;43.01;99104.78;4897564;29;20036;-72
2022/04/01 01:17:12;;;;;;;12.30;4.05;;;;;;;4.40;42.65;99095.22;4913825;29;20032;-72
2022/04/01 01:19:38;;;;;;;8.38;3.75;;;;;;;4.32;42.42;99097.88;4914828;29;20050;-72
2022/04/01 01:22:03;;;;;;;12.77;4.20;;;;;;;4.25;42.74;99098.78;4908209;29;20122;-72
2022/04/01 01:24:31;;;;;;;8.05;3.80;;;;;;;4.28;43.58;99103.13;4906209;29;20032;-71
2022/04/01 01:26:57;;;;;;;8.85;4.18;;;;;;;4.20;42.44;99092.69;4897845;29;20040;-72
2022/04/01 01:29:26;;;;;;;10.30;4.07;;;;;;;4.19;42.95;99090.94;4914773;29;20123;-73
2022/04/01 01:31:53;;;;;;;10.73;4.25;;;;;;;4.11;42.60;99095.31;4917826;29;20083;-73
2022/04/01 01:34:18;;;;;;;11.05;4.05;;;;;;;4.05;42.89;99088.38;4901457;29;20040;-73
2022/04/01 01:36:44;;;;;;;15.27;4.28;;;;;;;3.98;43.60;99091.00;4918491;29;20043;-73
2022/04/01 01:39:09;;;;;;;10.68;4.22;;;;;;;3.97;42.95;99091.91;4918417;29;20035;-72
2022/04/01 01:41:35;;;;;;;10.02;4.35;;;;;;;3.95;43.69;99084.91;4918208;29;20495;-72
2022/04/01 01:44:00;;;;;;;11.82;3.97;;;;;;;3.93;43.42;99088.44;4909895;29;20032;-72
2022/04/01 01:46:26;;;;;;;10.07;3.70;;;;;;;3.88;43.52;99085.81;4901278;29;20036;-72
2022/04/01 01:48:52;;;;;;;9.77;4.68;;;;;;;3.83;42.76;99097.16;4918273;29;20040;-72
2022/04/01 01:56:47;;;;;;;8.55;3.88;;;;;;;3.77;42.45;99090.19;4898119;29;20032;-72
2022/04/01 01:59:12;;;;;;;9.43;4.38;;;;;;;3.74;42.75;99082.34;4909536;29;20055;-72
2022/04/01 02:01:39;;;;;;;10.63;4.53;;;;;;;3.75;42.28;99084.13;4900909;29;20039;-73
2022/04/01 02:04:06;;;;;;;6.97;3.65;;;;;;;3.73;41.83;99086.72;4908733;29;20033;-72
2022/04/01 02:06:31;;;;;;;9.60;3.80;;;;;;;3.71;42.23;99087.59;4917944;29;20519;-72
2022/04/01 02:08:58;;;;;;;10.68;4.47;;;;;;;3.70;41.91;99081.50;4900948;29;20100;-73
2022/04/01 02:11:23;;;;;;;9.23;3.67;;;;;;;3.69;41.95;99079.78;4900712;29;20171;-72
2022/04/01 02:13:51;;;;;;;12.77;4.20;;;;;;;3.69;41.07;99087.63;4900803;29;20032;-73
2022/04/01 02:16:17;;;;;;;9.45;4.30;;;;;;;3.71;41.77;99085.84;4900842;29;20032;-73
2022/04/01 02:18:43;;;;;;;9.55;4.10;;;;;;;3.68;41.15;99082.38;4900714;29;20123;-72
2022/04/01 02:21:12;;;;;;;7.50;3.38;;;;;;;3.73;41.79;99076.28;4900509;29;20043;-72
2022/04/01 02:23:39;;;;;;;10.68;3.78;;;;;;;3.71;41.99;99083.22;4917738;29;20040;-72
2022/04/01 02:26:07;;;;;;;9.40;4.22;;;;;;;3.66;41.43;99084.97;4909048;29;20047;-72
2022/04/01 02:28:33;;;;;;;9.02;3.58;;;;;;;3.69;41.80;99091.94;4900595;29;20040;-73
2022/04/01 02:30:59;;;;;;;13.25;3.13;;;;;;;3.67;41.37;99084.13;4900199;29;20036;-72
2022/04/01 02:33:44;;;;;;;8.60;4.32;;;;;;;3.69;42.24;99086.72;4915846;29;20044;-72
2022/04/01 02:36:10;;;;;;;9.88;4.10;;;;;;;3.73;41.14;99085.84;4900282;29;20407;-73
2022/04/01 02:38:39;;;;;;;11.18;3.50;;;;;;;3.82;40.85;99083.22;4900445;29;20406;-73
2022/04/01 02:41:06;;;;;;;8.82;3.50;;;;;;;3.78;41.24;99083.25;4908255;29;20064;-73
2022/04/01 02:43:35;;;;;;;8.75;3.38;;;;;;;3.85;41.67;99080.63;4900468;29;20122;-72
2022/04/01 02:46:02;;;;;;;9.57;3.90;;;;;;;3.88;41.25;99085.81;4894536;29;20051;-72
2022/04/01 02:48:28;;;;;;;7.20;3.35;;;;;;;3.96;41.42;99093.66;4900167;29;20028;-73
2022/04/01 02:51:13;;;;;;;9.68;3.85;;;;;;;3.96;40.97;99091.03;4914329;29;20100;-72
2022/04/01 02:53:44;;;;;;;7.65;3.08;;;;;;;4.00;41.15;99102.31;4900116;29;20062;-72
2022/04/01 02:56:09;;;;;;;7.15;3.28;;;;;;;3.92;40.49;99100.59;4907714;29;20537;-72
2022/04/01 02:58:35;;;;;;;10.45;3.80;;;;;;;3.86;40.31;99103.22;4908545;29;20039;-73
2022/04/01 03:01:00;;;;;;;10.18;3.45;;;;;;;3.84;41.02;99109.31;4899198;29;20044;-73
2022/04/01 03:03:26;;;;;;;8.23;3.70;;;;;;;3.83;40.89;99118.91;4907157;29;20036;-73
2022/04/01 03:05:54;;;;;;;8.40;3.28;;;;;;;3.92;40.96;99112.78;4899828;29;20032;-73
2022/04/01 03:08:19;;;;;;;11.48;3.58;;;;;;;3.93;40.92;99115.41;4899856;29;20120;-73
2022/04/01 03:10:45;;;;;;;16.90;4.38;;;;;;;3.85;40.71;99109.31;4898538;29;20131;-73
2022/04/01 03:13:10;;;;;;;13.05;3.70;;;;;;;3.87;41.12;99114.53;4899208;29;20562;-73
2022/04/01 03:15:54;;;;;;;11.00;3.88;;;;;;;3.85;41.75;99109.31;4914651;29;20151;-73
2022/04/01 03:18:57;;;;;;;11.65;3.40;;;;;;;3.95;41.56;99108.41;4906645;29;20048;-73
2022/04/01 03:21:23;;;;;;;11.15;3.78;;;;;;;3.96;41.54;99114.53;4892972;29;20103;-73
2022/04/01 03:23:49;;;;;;;8.82;3.17;;;;;;;3.95;41.62;99115.38;4915518;29;20044;-73
2022/04/01 03:26:17;;;;;;;7.30;3.30;;;;;;;3.93;41.28;99104.97;4899335;29;20491;-72
2022/04/01 03:28:53;;;;;;;12.27;4.05;;;;;;;4.01;41.13;99111.88;4899560;29;20044;-73
2022/04/01 03:31:22;;;;;;;9.00;4.03;;;;;;;4.03;41.65;99116.22;4906647;29;20107;-73
2022/04/01 03:33:47;;;;;;;10.73;3.97;;;;;;;4.04;42.66;99117.13;4896291;29;20487;-74
2022/04/01 03:36:13;;;;;;;10.32;3.47;;;;;;;4.11;42.41;99121.44;4907853;29;20087;-75
2022/04/01 03:38:43;;;;;;;10.38;3.67;;;;;;;4.11;42.22;99118.81;4899261;29;20468;-74
2022/04/01 03:41:15;;;;;;;7.68;2.90;;;;;;;4.08;42.25;99124.06;4906475;29;20032;-73
2022/04/01 03:43:41;;;;;;;11.93;3.55;;;;;;;4.14;42.18;99124.91;4899284;29;20039;-73
2022/04/01 03:46:11;;;;;;;8.88;4.03;;;;;;;4.18;42.50;99120.53;4898972;29;20028;-73
2022/04/01 03:49:05;;;;;;;8.57;3.35;;;;;;;4.15;42.36;99120.56;4899293;29;20039;-73
2022/04/01 03:51:31;;;;;;;8.85;3.45;;;;;;;4.21;42.81;99115.31;4911160;29;20518;-73
2022/04/01 03:54:02;;;;;;;8.57;3.72;;;;;;;4.11;42.73;99118.81;4898168;29;20422;-73
2022/04/01 03:57:01;;;;;;;8.32;3.20;;;;;;;4.12;42.84;99121.44;4914988;29;20040;-73
2022/04/01 03:59:59;;;;;;;9.65;4.07;;;;;;;4.14;42.88;99129.28;4912054;29;20036;-74
2022/04/01 04:02:28;;;;;;;8.98;3.80;;;;;;;4.05;43.30;99124.06;4913108;29;20517;-74
2022/04/01 04:04:56;;;;;;;9.30;3.30;;;;;;;4.04;43.11;99124.94;4906904;29;20044;-74
2022/04/01 04:07:24;;;;;;;9.20;3.60;;;;;;;4.06;42.98;99118.84;4896835;29;20079;-74
2022/04/01 04:09:50;;;;;;;10.85;4.03;;;;;;;3.97;43.23;99120.59;4897837;29;20028;-74
2022/04/01 04:12:18;;;;;;;8.13;3.80;;;;;;;3.94;43.54;99127.56;4894789;29;20036;-74
2022/04/01 04:14:52;;;;;;;9.38;3.67;;;;;;;3.81;44.03;99125.84;4911225;29;20124;-73
2022/04/01 04:17:30;;;;;;;7.45;2.80;;;;;;;3.81;43.77;99130.22;4898717;29;20032;-74
2022/04/01 04:20:08;;;;;;;9.27;3.58;;;;;;;3.77;43.92;99131.94;4907083;29;20114;-73
2022/04/01 04:22:59;;;;;;;8.68;3.38;;;;;;;3.83;43.81;99131.09;4897022;29;20043;-74
2022/04/01 04:25:32;;;;;;;8.07;3.85;;;;;;;3.82;43.92;99132.78;4910927;29;20047;-73
2022/04/01 04:27:59;;;;;;;9.60;3.72;;;;;;;3.76;44.06;99138.03;4893799;29;20024;-73
2022/04/01 04:30:32;;;;;;;10.00;3.50;;;;;;;3.68;44.30;99140.66;4892082;29;20562;-73
2022/04/01 04:33:17;;;;;;;9.82;3.50;;;;;;;3.65;44.53;99150.22;4909074;29;20054;-73
2022/04/01 04:35:44;;;;;;;9.45;4.00;;;;;;;3.72;44.22;99155.44;4889896;29;20031;-73
2022/04/01 04:38:12;;;;;;;6.78;3.47;;;;;;;3.80;44.33;99155.44;4897608;29;20032;-73
2022/04/01 04:40:42;;;;;;;9.32;3.70;;;;;;;3.80;44.33;99163.28;4909204;29;20507;-73
2022/04/01 04:43:14;;;;;;;7.82;2.92;;;;;;;3.79;44.43;99158.91;4909378;29;20103;-73
2022/04/01 04:45:40;;;;;;;7.32;3.65;;;;;;;3.76;44.21;99164.13;4896589;29;20039;-73
2022/04/01 04:48:09;;;;;;;8.68;3.03;;;;;;;3.75;43.92;99167.63;4898154;29;20028;-74
2022/04/01 04:50:35;;;;;;;9.10;3.53;;;;;;;3.66;43.96;99165.00;4915152;29;20040;-73
2022/04/01 04:53:01;;;;;;;8.85;4.00;;;;;;;3.63;44.45;99172.84;4906353;29;20515;-73
2022/04/01 04:55:26;;;;;;;7.93;3.85;;;;;;;3.61;44.50;99179.78;4897464;29;20040;-73
2022/04/01 04:58:01;;;;;;;8.90;3.30;;;;;;;3.68;44.81;99171.09;4890874;29;20107;-73
2022/04/01 05:00:27;;;;;;;9.27;4.95;;;;;;;3.57;45.36;99176.31;4890125;29;20119;-73
2022/04/01 05:03:24;;;;;;;8.75;3.90;;;;;;;3.66;45.84;99172.81;4894665;29;20477;-73
2022/04/01 05:05:54;;;;;;;8.23;3.45;;;;;;;3.74;45.17;99184.13;4886632;29;20028;-73
2022/04/01 05:08:48;;;;;;;7.60;3.10;;;;;;;3.66;45.62;99183.25;4903905;29;20047;-73
2022/04/01 05:11:57;;;;;;;9.68;3.25;;;;;;;3.36;46.00;99195.44;4897650;29;20100;-73
2022/04/01 05:15:02;;;;;;;11.50;4.85;;;;;;;3.43;45.91;99199.78;4909980;29;20032;-73
2022/04/01 05:17:36;;;;;;;7.45;3.42;;;;;;;3.57;46.24;99194.56;4909240;29;20121;-73
2022/04/01 05:20:15;;;;;;;6.97;3.22;;;;;;;3.51;46.32;99192.84;4897773;29;20063;-73
2022/04/01 05:23:09;;;;;;;8.65;3.50;;;;;;;3.44;46.62;99198.91;4893324;29;20451;-73
2022/04/01 05:25:43;;;;;;;8.20;3.88;;;;;;;3.38;46.81;99204.13;4903433;29;20142;-73
2022/04/01 05:28:30;;;;;;;9.13;3.78;;;;;;;3.35;46.78;99204.09;4912406;29;20080;-73
2022/04/01 05:31:13;;;;;;;10.27;3.58;;;;;;;3.35;46.73;99211.91;4894154;29;20040;-73
2022/04/01 05:33:52;;;;;;;8.98;3.95;;;;;;;3.36;46.94;99215.44;4890851;29;20063;-73
2022/04/01 05:36:19;;;;;;;8.25;3.50;;;;;;;3.36;46.77;99221.50;4892215;29;20040;-73
2022/04/01 05:38:49;;;;;;;8.15;3.85;;;;;;;3.43;47.14;99219.75;4895691;29;20044;-73
2022/04/01 05:41:19;;;;;;;8.35;3.85;;;;;;;3.34;47.51;99223.22;4897430;29;20087;-73
2022/04/01 05:43:47;;;;;;;6.45;3.58;;;;;;;3.26;47.41;99225.81;4896914;29;20040;-72
2022/04/01 05:46:22;;;;;;;9.60;3.10;;;;;;;3.20;47.40;99230.16;4896877;29;20524;-73
2022/04/01 05:48:49;;;;;;;9.65;4.20;;;;;;;3.13;47.58;99228.41;4895986;29;20103;-73
2022/04/01 05:51:15;;;;;;;10.88;3.83;;;;;;;3.03;47.83;99225.75;4894002;29;20037;-73
2022/04/01 05:53:46;;;;;;;7.57;3.50;;;;;;;3.06;48.20;99230.97;4892651;29;20036;-73
2022/04/01 05:56:14;;;;;;;10.20;4.25;;;;;;;3.19;48.08;99238.84;4897507;29;20033;-73
2022/04/01 05:58:42;;;;;;;8.23;4.18;;;;;;;3.08;48.59;99237.06;4903657;29;20499;-73
2022/04/01 06:01:30;;;;;;;11.48;3.75;;;;;;;3.04;49.94;99234.47;4893715;29;20118;-73
2022/04/01 06:04:08;;;;;;;13.95;4.38;;;;;;;3.06;50.55;99238.78;4907625;29;20033;-73
2022/04/01 06:07:20;;;;;;;9.45;4.75;;;;;;;3.01;50.36;99237.03;4897341;29;20028;-73
2022/04/01 06:10:00;;;;;;;10.63;4.07;;;;;;;3.07;50.42;99239.69;4861233;29;20143;-73
2022/04/01 06:13:11;;;;;;;10.02;4.15;;;;;;;2.89;50.28;99245.69;4895696;29;20047;-72
2022/04/01 06:16:20;;;;;;;8.60;3.47;;;;;;;2.84;50.03;99250.00;4908116;29;20038;-73
2022/04/01 06:19:06;;;;;;;13.65;3.63;;;;;;;2.79;50.76;99254.31;4900308;29;20028;-73
2022/04/01 06:21:38;;;;;;;11.32;3.42;;;;;;;2.74;50.28;99259.50;4901559;29;20135;-73
2022/04/01 06:24:16;;;;;;;5.57;2.88;;;;;;;2.77;49.92;99261.25;4913006;29;20102;-73
2022/04/01 06:26:57;;;;;;;13.68;5.95;;;;;;;2.96;50.78;99263.09;4916590;29;20059;-73
2022/04/01 06:29:39;;;;;;;14.15;7.30;;;;;;;3.13;51.91;99254.47;4898541;29;20441;-72
2022/04/01 06:32:23;;;;;;;14.48;8.02;;;;;;;3.21;51.17;99263.19;4891296;29;20487;-73
2022/04/01 06:35:07;;;;;;;15.00;8.82;;;;;;;3.35;51.65;99265.81;4897805;29;20076;-73
2022/04/01 06:38:03;;;;;;;13.40;5.90;;;;;;;3.44;46.79;99266.72;4895493;29;20065;-73
2022/04/01 06:40:40;;;;;;;12.38;3.97;;;;;;;3.27;45.55;99268.41;4900349;29;20031;-73
2022/04/01 06:43:07;;;;;;;9.10;3.92;;;;;;;3.15;45.25;99274.47;4897067;29;20044;-73
2022/04/01 06:45:52;;;;;;;7.85;3.28;;;;;;;3.23;44.50;99269.28;4914882;29;20127;-73
2022/04/01 06:48:40;;;;;;;7.88;3.63;;;;;;;3.28;45.07;99278.00;4897808;29;20040;-73
2022/04/01 06:51:25;;;;;;;8.75;3.53;;;;;;;3.12;44.69;99274.47;4910060;29;20064;-73
2022/04/01 06:54:09;;;;;;;10.98;3.72;;;;;;;3.08;44.87;99270.94;4911829;29;20153;-73
2022/04/01 06:56:54;;;;;;;10.15;4.10;;;;;;;3.21;45.56;99278.81;4916618;29;20120;-73
2022/04/01 06:59:20;;;;;;;11.07;4.15;;;;;;;3.24;45.33;99271.88;4900089;29;20113;-73
2022/04/01 07:01:45;;;;;;;8.32;3.35;;;;;;;3.30;45.50;99278.84;4914338;29;20057;-73
2022/04/01 07:04:11;;;;;;;8.85;3.38;;;;;;;3.26;44.89;99284.94;4908678;29;20103;-73
2022/04/01 07:06:36;;;;;;;6.93;3.25;;;;;;;3.32;44.64;99290.16;4906487;29;20036;-73
2022/04/01 07:09:02;;;;;;;8.57;4.75;;;;;;;3.40;45.40;99280.59;4905134;29;20054;-73
2022/04/01 07:11:27;;;;;;;8.85;4.53;;;;;;;3.44;44.73;99289.34;4907886;29;20036;-73
2022/04/01 07:13:54;;;;;;;9.85;3.55;;;;;;;3.51;45.43;99286.75;4908625;29;20036;-73
2022/04/01 07:16:19;;;;;;;7.90;3.53;;;;;;;3.40;44.74;99291.03;4916536;29;20043;-73
2022/04/01 07:18:45;;;;;;;10.40;3.55;;;;;;;3.15;45.41;99289.25;4916647;29;20043;-73
2022/04/01 07:21:10;;;;;;;10.65;4.10;;;;;;;3.25;45.47;99293.63;4916626;29;20036;-73
2022/04/01 07:23:37;;;;;;;7.85;3.60;;;;;;;3.46;45.40;99291.09;4910697;29;20504;-73
2022/04/01 07:26:02;;;;;;;7.40;3.70;;;;;;;3.62;44.90;99288.50;4912674;29;20088;-73
2022/04/01 07:28:28;;;;;;;5.25;2.85;;;;;;;3.65;44.50;99291.13;4912428;29;20723;-73
2022/04/01 07:30:54;;;;;;;11.23;5.32;;;;;;;3.67;45.48;99300.69;4914927;29;20209;-73
2022/04/01 07:33:19;;;;;;;12.43;7.38;;;;;;;3.74;45.14;99305.03;4914926;29;20135;-73
2022/04/01 07:35:47;;;;;;;15.63;8.23;;;;;;;3.85;45.62;99309.41;4914843;29;20028;-73
2022/04/01 07:38:13;;;;;;;16.17;5.82;;;;;;;3.90;44.69;99302.44;4911648;29;20115;-73
2022/04/01 07:40:38;;;;;;;13.00;3.63;;;;;;;3.81;44.17;99311.16;4908767;29;20128;-73
2022/04/01 07:43:04;;;;;;;6.40;3.45;;;;;;;3.76;43.75;99320.72;4909424;29;20079;-73
2022/04/01 07:45:33;;;;;;;9.38;3.42;;;;;;;3.81;43.73;99318.13;4909300;29;20072;-73
2022/04/01 07:47:58;;;;;;;7.38;3.53;;;;;;;3.81;44.08;99315.50;4905387;29;20040;-73
2022/04/01 07:50:23;;;;;;;14.25;5.93;;;;;;;3.86;43.86;99313.78;4908923;29;20050;-73
2022/04/01 07:52:49;;;;;;;12.15;6.55;;;;;;;3.95;43.28;99322.47;4912361;29;20115;-73
2022/04/01 07:55:16;;;;;;;14.85;8.25;;;;;;;4.11;44.38;99307.72;4915836;29;20047;-73
2022/04/01 07:57:43;;;;;;;10.38;5.85;;;;;;;4.25;43.33;99312.06;4916066;29;20043;-73
2022/04/01 08:00:10;;;;;;;10.95;4.85;;;;;;;4.17;42.89;99312.06;4915798;29;20209;-73
2022/04/01 08:02:39;;;;;;;11.65;3.75;;;;;;;4.20;42.62;99314.66;4907118;29;20054;-73
2022/04/01 08:05:06;;;;;;;8.20;4.03;;;;;;;4.32;42.98;99316.38;4915760;29;20040;-73
2022/04/01 08:07:32;;;;;;;8.98;4.70;;;;;;;4.38;41.49;99317.28;4915635;29;20024;-73
2022/04/01 08:09:58;;;;;;;7.05;3.47;;;;;;;4.38;41.73;99317.28;4911756;29;20422;-73
2022/04/01 08:12:23;;;;;;;7.47;3.67;;;;;;;4.52;41.51;99324.22;4913916;29;20127;-73
2022/04/01 08:14:49;;;;;;;9.18;4.70;;;;;;;4.59;41.19;99324.22;4915641;29;20127;-73
2022/04/01 08:17:15;;;;;;;7.65;3.85;;;;;;;4.63;40.52;99322.47;4898581;29;20032;-73
2022/04/01 08:19:42;;;;;;;9.98;4.18;;;;;;;4.65;40.18;99323.34;4915664;29;20039;-73
2022/04/01 08:22:09;;;;;;;9.35;4.15;;;;;;;4.65;39.86;99317.25;4911550;29;20059;-73
2022/04/01 08:24:34;;;;;;;7.63;4.03;;;;;;;4.72;39.59;99325.06;4914449;29;20115;-73
2022/04/01 08:27:00;;;;;;;8.80;3.65;;;;;;;4.56;39.11;99332.06;4912541;29;20480;-73
2022/04/01 08:29:30;;;;;;;6.20;3.30;;;;;;;4.78;39.77;99337.25;4915480;29;20036;-73
2022/04/01 08:31:56;;;;;;;7.90;3.85;;;;;;;4.94;39.97;99331.09;4915387;29;20048;-73
2022/04/01 08:34:22;;;;;;;7.07;3.72;;;;;;;5.10;39.28;99331.94;4915348;29;20075;-73
2022/04/01 08:36:48;;;;;;;9.15;5.18;;;;;;;5.35;39.27;99334.47;4915284;29;20024;-73
2022/04/01 08:39:13;;;;;;;7.07;3.08;;;;;;;5.09;38.37;99322.38;4914085;29;20032;-73
2022/04/01 08:41:39;;;;;;;7.07;3.53;;;;;;;4.87;38.65;99337.22;4912797;29;20126;-73
2022/04/01 08:44:05;;;;;;;7.55;3.65;;;;;;;4.86;38.93;99347.69;4913313;29;20131;-73
2022/04/01 08:46:30;;;;;;;9.57;4.57;;;;;;;5.11;38.92;99341.53;4913516;29;20039;-73
2022/04/01 08:48:56;;;;;;;7.07;3.33;;;;;;;5.20;38.78;99338.88;4914150;29;20123;-73
2022/04/01 08:51:22;;;;;;;7.72;3.97;;;;;;;5.36;38.55;99344.91;4914811;29;20051;-73
2022/04/01 08:53:47;;;;;;;8.30;3.85;;;;;;;5.28;38.15;99344.94;4913221;29;20432;-73
2022/04/01 08:56:14;;;;;;;6.68;3.30;;;;;;;5.36;38.65;99362.38;4966072;23;20391;-73
2022/04/01 08:58:40;;;;;;;8.57;3.58;;;;;;;5.42;38.83;99347.53;4894675;29;20094;-73
2022/04/01 09:01:06;;;;;;;6.88;3.00;;;;;;;5.28;38.91;99350.19;4894265;29;20036;-72
2022/04/01 09:03:34;;;;;;;6.47;3.25;;;;;;;5.27;38.64;99353.69;4898358;29;20457;-72
2022/04/01 09:06:02;;;;;;;8.30;3.38;;;;;;;5.18;38.54;99358.94;4895971;29;20092;-73
2022/04/01 09:08:33;;;;;;;6.15;3.30;;;;;;;5.28;38.54;99360.66;4875589;29;20041;-73
2022/04/01 09:11:01;;;;;;;8.23;4.45;;;;;;;5.41;39.32;99358.00;4875004;29;20072;-73
2022/04/01 09:13:29;;;;;;;8.40;4.28;;;;;;;5.65;39.15;99365.72;4854771;29;20044;-73
2022/04/01 09:15:54;;;;;;;8.38;3.55;;;;;;;5.67;38.96;99361.34;4869411;29;20045;-73
2022/04/01 09:18:41;;;;;;;8.02;4.80;;;;;;;5.76;38.54;99359.56;4870467;29;20040;-73
2022/04/01 09:21:08;;;;;;;8.85;4.50;;;;;;;5.88;38.47;99360.38;4868341;29;20049;-73
2022/04/01 09:23:35;;;;;;;5.88;2.92;;;;;;;5.72;38.14;99361.34;4854969;29;20043;-73
2022/04/01 09:26:01;;;;;;;6.95;3.60;;;;;;;5.65;39.03;99363.09;4868532;29;20041;-73
2022/04/01 09:28:37;;;;;;;7.05;3.03;;;;;;;5.67;37.95;99361.34;4877269;29;20037;-73
2022/04/01 09:31:14;;;;;;;7.10;3.85;;;;;;;5.80;38.68;99363.91;4876985;29;20481;-73
2022/04/01 09:33:42;;;;;;;7.13;4.22;;;;;;;5.93;38.60;99370.81;4877243;29;20073;-73
2022/04/01 09:36:12;;;;;;;7.65;3.70;;;;;;;5.62;39.57;99377.97;4877078;29;20527;-73
2022/04/01 09:38:37;;;;;;;5.97;3.42;;;;;;;5.72;38.65;99377.91;4869641;29;20037;-73
2022/04/01 09:41:04;;;;;;;8.13;3.40;;;;;;;5.68;38.90;99378.78;4870398;29;20047;-73
2022/04/01 09:43:32;;;;;;;7.93;3.47;;;;;;;5.79;39.43;99377.88;4868716;29;20041;-73
2022/04/01 09:46:04;;;;;;;7.05;3.50;;;;;;;5.57;39.27;99377.97;4871459;29;20045;-72
2022/04/01 09:48:39;;;;;;;7.15;2.90;;;;;;;5.70;39.63;99377.03;4871771;29;20029;-72
2022/04/01 09:51:04;;;;;;;6.75;3.00;;;;;;;5.91;38.33;99377.81;4869965;29;20072;-73
2022/04/01 09:53:29;;;;;;;6.30;3.08;;;;;;;5.85;39.04;99376.09;4873690;29;20066;-73
2022/04/01 09:55:56;;;;;;;5.47;2.90;;;;;;;5.76;39.29;99373.53;4875555;29;20056;-73
2022/04/01 09:58:22;;;;;;;10.50;3.58;;;;;;;5.71;39.48;99378.81;4882161;29;20566;-74
2022/04/01 10:00:48;;;;;;;8.55;3.33;;;;;;;5.82;40.19;99383.13;4866330;29;20072;-73
2022/04/01 10:03:15;;;;;;;17.33;2.97;;;;;;;5.77;39.94;99377.03;4863523;29;20036;-73
2022/04/01 10:05:41;;;;;;;8.23;3.42;;;;;;;5.86;40.47;99395.28;4880412;29;20497;-73
2022/04/01 10:08:09;;;;;;;8.05;3.88;;;;;;;6.02;39.65;99375.16;4880150;29;20040;-73
2022/04/01 10:10:36;;;;;;;7.97;3.58;;;;;;;6.09;39.86;99375.09;4879883;29;20041;-72
2022/04/01 10:13:09;;;;;;;6.80;4.10;;;;;;;6.15;39.40;99372.44;4879553;29;20067;-72
2022/04/01 10:15:36;;;;;;;6.57;3.42;;;;;;;6.36;39.03;99370.56;4880180;29;20342;-73
2022/04/01 10:18:02;;;;;;;7.35;3.13;;;;;;;6.62;38.90;99366.84;4876199;29;20556;-73
2022/04/01 10:20:35;;;;;;;5.97;3.13;;;;;;;6.52;38.30;99363.44;4880072;29;20115;-74
2022/04/01 10:23:07;;;;;;;5.65;2.53;;;;;;;6.62;37.62;99367.72;4878551;29;20036;-73
2022/04/01 10:25:59;;;;;;;7.80;3.50;;;;;;;6.59;38.14;99358.13;4876866;29;20059;-73
2022/04/01 10:28:26;;;;;;;8.43;3.25;;;;;;;6.83;38.22;99366.66;4874962;29;20297;-73
2022/04/01 10:30:59;;;;;;;7.50;3.47;;;;;;;6.93;37.03;99363.06;4879495;29;20140;-74
2022/04/01 10:33:29;;;;;;;6.85;4.38;;;;;;;7.14;37.19;99363.72;4860036;29;20581;-74
2022/04/01 10:35:55;;;;;;;11.43;4.40;;;;;;;7.30;35.67;99364.41;4870663;29;20109;-73
2022/04/01 10:38:24;;;;;;;9.57;2.83;;;;;;;7.28;35.61;99360.94;4872495;29;20492;-73
2022/04/01 10:40:50;;;;;;;6.90;3.20;;;;;;;7.22;35.68;99360.13;4858364;29;20037;-73
2022/04/01 10:43:21;;;;;;;12.25;6.93;;;;;;;7.42;34.82;99365.16;4871296;29;20044;-74
2022/04/01 10:45:58;;;;;;;7.32;3.80;;;;;;;7.58;35.23;99367.59;4878582;29;20041;-74
2022/04/01 10:54:12;;;;;;;6.13;3.45;;;;;;;8.19;34.87;99358.84;4877638;29;20045;-74
2022/04/01 10:57:05;;;;;;;12.48;3.00;;;;;;;8.22;33.99;99366.69;4876915;29;20503;-73
2022/04/01 10:59:39;;;;;;;5.47;2.55;;;;;;;8.21;34.16;99359.69;4876819;29;20037;-76
2022/04/01 11:02:07;;;;;;;9.65;3.28;;;;;;;8.17;33.75;99363.25;4879043;29;20111;-73
2022/04/01 11:04:36;;;;;;;6.00;3.17;;;;;;;8.30;33.88;99363.94;4876091;29;20041;-73
2022/04/01 11:07:12;;;;;;;5.68;2.40;;;;;;;8.32;33.93;99365.66;4879492;29;20080;-74
2022/04/01 11:09:47;;;;;;;6.82;2.88;;;;;;;8.50;32.83;99355.78;4875813;29;20101;-74
2022/04/01 11:12:15;;;;;;;6.03;3.08;;;;;;;8.65;33.13;99366.03;4878080;29;20037;-73
2022/04/01 11:14:53;;;;;;;7.78;3.13;;;;;;;8.88;32.51;99364.75;4878461;29;20043;-74
2022/04/01 11:17:19;;;;;;;7.43;2.95;;;;;;;8.80;32.29;99354.34;4878907;29;20485;-74
2022/04/01 11:20:12;;;;;;;7.50;3.25;;;;;;;8.90;31.63;99355.06;4877342;29;20032;-73
2022/04/01 11:22:44;;;;;;;10.13;4.13;;;;;;;8.81;32.62;99350.00;4875302;29;20037;-73
2022/04/01 11:25:24;;;;;;;7.85;3.28;;;;;;;8.70;31.88;99352.81;4878977;29;20064;-74
2022/04/01 11:27:58;;;;;;;6.65;3.33;;;;;;;8.93;31.94;99342.75;4877880;29;20164;-74
2022/04/01 11:30:26;;;;;;;9.45;3.28;;;;;;;9.23;31.79;99337.78;4871235;29;20061;-73
2022/04/01 11:33:02;;;;;;;10.18;3.20;;;;;;;9.34;30.71;99345.47;4873332;29;20055;-73
2022/04/01 11:35:32;;;;;;;9.10;2.53;;;;;;;9.18;31.00;99350.16;4878157;29;20059;-73
2022/04/01 11:37:59;;;;;;;6.10;2.78;;;;;;;8.97;31.63;99356.72;4875255;29;20118;-73
2022/04/01 11:40:26;;;;;;;8.38;3.10;;;;;;;9.30;31.32;99346.41;4861877;29;20503;-74
2022/04/01 11:43:10;;;;;;;5.82;3.47;;;;;;;9.32;31.27;99347.25;4875324;29;20541;-74
2022/04/01 11:45:38;;;;;;;6.00;2.90;;;;;;;9.45;31.31;99359.28;4876796;29;20411;-74
2022/04/01 11:48:17;;;;;;;5.55;2.85;;;;;;;9.21;30.98;99358.00;4878473;29;20041;-74
2022/04/01 11:50:44;;;;;;;5.57;2.72;;;;;;;9.14;31.63;99362.53;4876447;29;20041;-74
2022/04/01 11:53:19;;;;;;;7.07;3.40;;;;;;;9.17;31.72;99365.09;4857718;29;20037;-73
2022/04/01 11:55:44;;;;;;;7.63;2.67;;;;;;;8.99;31.27;99349.66;4876521;29;20044;-73
2022/04/01 11:58:10;;;;;;;5.78;2.67;;;;;;;8.55;32.12;99362.69;4878162;29;20044;-74
2022/04/01 12:00:35;;;;;;;6.80;3.38;;;;;;;8.29;33.38;99362.22;4877905;29;20067;-73
2022/04/01 12:03:00;;;;;;;11.98;6.88;;;;;;;8.54;34.49;99366.22;4877801;29;20040;-73
2022/04/01 12:05:29;;;;;;;12.18;6.80;;;;;;;8.74;35.14;99371.13;4859817;29;20052;-73
2022/04/01 12:10:41;;;;;;;8.25;4.55;;;;;;;8.92;33.97;99372.56;4874773;29;20623;-74